createdAt,value
2022-09-23T00:01:06.462Z,89
2022-09-23T00:02:13.528Z,89
2022-09-23T00:03:20.623Z,89
2022-09-23T00:04:27.191Z,89
2022-09-23T00:05:34.274Z,89
2022-09-23T00:06:41.454Z,89
2022-09-23T00:07:48.522Z,89
2022-09-23T00:08:55.321Z,89
2022-09-23T00:10:02.184Z,88
2022-09-23T00:11:13.118Z,88
2022-09-23T00:12:16.413Z,88
2022-09-23T00:13:23.452Z,88
2022-09-23T00:14:30.279Z,88
2022-09-23T00:15:37.208Z,88
2022-09-23T00:16:44.360Z,88
2022-09-23T00:17:51.393Z,88
2022-09-23T00:18:58.535Z,88
2022-09-23T00:20:05.091Z,88
2022-09-23T00:21:12.196Z,88
2022-09-23T00:22:19.486Z,88
2022-09-23T00:23:27.024Z,88
2022-09-23T00:24:33.501Z,88
2022-09-23T00:25:40.103Z,88
2022-09-23T00:26:48.432Z,88
2022-09-23T00:27:54.299Z,88
2022-09-23T00:29:01.406Z,88
2022-09-23T00:30:08.544Z,88
2022-09-23T00:31:15.142Z,88
2022-09-23T00:32:22.217Z,88
2022-09-23T00:34:36.446Z,88
2022-09-23T00:35:43.560Z,88
2022-09-23T00:36:50.069Z,88
2022-09-23T00:37:57.244Z,89
2022-09-23T00:39:04.710Z,88
2022-09-23T00:40:11.531Z,88
2022-09-23T00:41:18.590Z,88
2022-09-23T00:42:25.101Z,89
2022-09-23T00:43:32.284Z,89
2022-09-23T00:44:39.361Z,89
2022-09-23T00:45:46.487Z,89
2022-09-23T00:46:53.571Z,89
2022-09-23T00:48:00.118Z,89
2022-09-23T00:49:07.235Z,89
2022-09-23T00:50:14.292Z,89
2022-09-23T00:52:28.625Z,89
2022-09-23T00:53:35.179Z,89
2022-09-23T00:55:49.346Z,89
2022-09-23T00:56:56.453Z,89
2022-09-23T00:58:03.604Z,89
2022-09-23T00:59:10.095Z,89
2022-09-23T01:00:17.255Z,89
2022-09-23T01:01:24.368Z,89
2022-09-23T01:02:31.614Z,90
2022-09-23T01:03:39.370Z,90
2022-09-23T01:04:45.141Z,90
2022-09-23T01:05:52.281Z,90
2022-09-23T01:06:59.361Z,90
2022-09-23T01:08:06.491Z,90
2022-09-23T01:09:13.630Z,90
2022-09-23T01:10:20.122Z,90
2022-09-23T01:11:27.239Z,90
2022-09-23T01:12:34.351Z,90
2022-09-23T01:13:41.496Z,90
2022-09-23T01:15:55.158Z,90
2022-09-23T01:17:02.392Z,90
2022-09-23T01:18:09.427Z,90
2022-09-23T01:20:23.082Z,90
2022-09-23T01:21:30.303Z,90
2022-09-23T01:23:44.380Z,90
2022-09-23T01:24:51.468Z,90
2022-09-23T01:25:58.124Z,90
2022-09-23T01:27:05.140Z,90
2022-09-23T01:28:12.309Z,90
2022-09-23T01:29:19.383Z,90
2022-09-23T01:30:26.611Z,90
2022-09-23T01:31:33.199Z,90
2022-09-23T01:32:40.258Z,91
2022-09-23T01:33:47.344Z,91
2022-09-23T01:34:54.390Z,91
2022-09-23T01:36:01.538Z,91
2022-09-23T01:37:08.142Z,91
2022-09-23T01:38:15.195Z,91
2022-09-23T01:39:22.291Z,91
2022-09-23T01:40:29.526Z,91
2022-09-23T01:41:36.150Z,91
2022-09-23T01:42:43.208Z,91
2022-09-23T01:43:50.188Z,91
2022-09-23T01:44:57.323Z,91
2022-09-23T01:46:04.381Z,91
2022-09-23T01:48:18.182Z,91
2022-09-23T01:49:25.216Z,91
2022-09-23T01:50:32.325Z,91
2022-09-23T01:51:39.457Z,91
2022-09-23T01:52:46.507Z,91
2022-09-23T01:53:53.103Z,91
2022-09-23T01:55:00.251Z,92
2022-09-23T01:57:14.400Z,92
2022-09-23T01:59:28.179Z,92
2022-09-23T02:00:35.169Z,92
2022-09-23T02:01:42.415Z,92
2022-09-23T02:02:49.529Z,92
2022-09-23T02:03:56.529Z,92
2022-09-23T02:05:03.557Z,92
2022-09-23T02:06:10.286Z,92
2022-09-23T02:07:17.351Z,92
2022-09-23T02:08:24.400Z,92
2022-09-23T02:09:31.009Z,92
2022-09-23T02:10:38.114Z,92
2022-09-23T02:11:45.210Z,92
2022-09-23T02:12:52.394Z,92
2022-09-23T02:13:59.527Z,92
2022-09-23T02:15:06.102Z,92
2022-09-23T02:16:13.305Z,93
2022-09-23T02:17:20.265Z,92
2022-09-23T02:18:27.398Z,93
2022-09-23T02:19:34.454Z,92
2022-09-23T02:20:41.137Z,92
2022-09-23T02:21:49.245Z,92
2022-09-23T02:22:55.280Z,93
2022-09-23T02:24:02.330Z,93
2022-09-23T02:25:09.450Z,93
2022-09-23T02:26:16.092Z,93
2022-09-23T02:27:23.181Z,93
2022-09-23T02:28:30.301Z,93
2022-09-23T02:29:37.362Z,93
2022-09-23T02:30:44.488Z,93
2022-09-23T02:31:51.166Z,93
2022-09-23T02:32:58.302Z,93
2022-09-23T02:34:05.252Z,93
2022-09-23T02:35:12.422Z,93
2022-09-23T02:36:19.490Z,93
2022-09-23T02:38:33.248Z,93
2022-09-23T02:39:40.308Z,92
2022-09-23T02:40:47.526Z,92
2022-09-23T02:41:55.626Z,93
2022-09-23T02:43:01.632Z,92
2022-09-23T02:44:09.104Z,93
2022-09-23T02:45:15.267Z,93
2022-09-23T02:46:22.500Z,93
2022-09-23T02:47:29.528Z,93
2022-09-23T02:48:36.121Z,93
2022-09-23T02:49:43.834Z,93
2022-09-23T02:51:57.388Z,93
2022-09-23T02:53:04.532Z,93
2022-09-23T02:54:11.118Z,93
2022-09-23T02:55:18.249Z,93
2022-09-23T02:56:25.301Z,93
2022-09-23T02:57:32.455Z,93
2022-09-23T02:58:39.500Z,93
2022-09-23T02:59:46.086Z,93
2022-09-23T03:00:53.261Z,93
2022-09-23T03:03:07.439Z,93
2022-09-23T03:04:13.986Z,93
2022-09-23T03:05:21.090Z,93
2022-09-23T03:06:28.980Z,93
2022-09-23T03:07:35.257Z,93
2022-09-23T03:08:42.413Z,93
2022-09-23T03:09:49.053Z,93
2022-09-23T03:10:56.098Z,93
2022-09-23T03:12:03.302Z,93
2022-09-23T03:13:10.353Z,93
2022-09-23T03:14:17.627Z,93
2022-09-23T03:15:24.022Z,93
2022-09-23T03:16:31.292Z,94
2022-09-23T03:19:52.425Z,93
2022-09-23T03:20:59.025Z,93
2022-09-23T03:22:06.155Z,94
2022-09-23T03:23:13.219Z,93
2022-09-23T03:24:20.363Z,93
2022-09-23T03:25:27.502Z,94
2022-09-23T03:26:34.007Z,94
2022-09-23T03:27:41.112Z,94
2022-09-23T03:28:48.247Z,94
2022-09-23T03:29:55.382Z,94
2022-09-23T03:31:02.439Z,93
2022-09-23T03:32:09.070Z,93
2022-09-23T03:33:16.121Z,93
2022-09-23T03:34:23.232Z,93
2022-09-23T03:35:30.299Z,94
2022-09-23T03:36:37.493Z,94
2022-09-23T03:37:44.069Z,94
2022-09-23T03:38:51.166Z,94
2022-09-23T03:39:58.293Z,94
2022-09-23T03:41:11.961Z,94
2022-09-23T03:42:12.466Z,94
2022-09-23T03:43:19.099Z,94
2022-09-23T03:44:26.228Z,94
2022-09-23T03:46:40.397Z,95
2022-09-23T03:47:46.989Z,95
2022-09-23T03:48:54.060Z,95
2022-09-23T03:50:01.148Z,94
2022-09-23T03:51:08.257Z,95
2022-09-23T03:52:15.382Z,95
2022-09-23T03:53:21.989Z,95
2022-09-23T03:54:29.096Z,96
2022-09-23T03:55:36.202Z,97
2022-09-23T03:56:43.266Z,97
2022-09-23T03:57:50.356Z,96
2022-09-23T03:58:57.489Z,97
2022-09-23T04:01:11.367Z,98
2022-09-23T04:02:18.396Z,97
2022-09-23T04:03:25.362Z,98
2022-09-23T04:04:32.569Z,97
2022-09-23T04:06:48.046Z,99
2022-09-23T04:07:53.285Z,99
2022-09-23T04:09:00.374Z,99
2022-09-23T04:10:07.469Z,98
2022-09-23T04:11:14.060Z,98
2022-09-23T04:12:21.186Z,98
2022-09-23T04:13:28.351Z,98
2022-09-23T04:14:35.396Z,98
2022-09-23T04:15:42.014Z,98
2022-09-23T04:16:49.221Z,98
2022-09-23T04:17:56.213Z,98
2022-09-23T04:20:10.918Z,99
2022-09-23T04:21:17.094Z,98
2022-09-23T04:22:24.098Z,99
2022-09-23T04:23:31.228Z,97
2022-09-23T04:24:38.308Z,97
2022-09-23T04:25:45.432Z,98
2022-09-23T04:26:52.040Z,98
2022-09-23T04:27:59.087Z,98
2022-09-23T04:29:06.433Z,97
2022-09-23T04:30:13.318Z,97
2022-09-23T04:31:20.479Z,97
2022-09-23T04:32:26.988Z,98
2022-09-23T04:33:34.060Z,97
2022-09-23T04:34:41.251Z,98
2022-09-23T04:35:48.412Z,96
2022-09-23T04:36:55.426Z,97
2022-09-23T04:38:02.022Z,97
2022-09-23T04:39:09.137Z,96
2022-09-23T04:40:16.347Z,97
2022-09-23T04:42:30.498Z,97
2022-09-23T04:43:37.078Z,95
2022-09-23T04:44:44.122Z,95
2022-09-23T04:45:51.226Z,95
2022-09-23T04:46:58.415Z,94
2022-09-23T04:48:05.963Z,94
2022-09-23T04:49:12.074Z,94
2022-09-23T04:50:19.168Z,94
2022-09-23T04:51:26.284Z,94
2022-09-23T04:52:33.405Z,94
2022-09-23T04:53:40.083Z,93
2022-09-23T04:54:47.028Z,93
2022-09-23T04:55:54.108Z,93
2022-09-23T04:57:01.255Z,93
2022-09-23T04:58:08.400Z,93
2022-09-23T04:59:15.034Z,93
2022-09-23T05:00:22.063Z,93
2022-09-23T05:01:29.210Z,93
2022-09-23T05:02:36.302Z,93
2022-09-23T05:03:43.345Z,93
2022-09-23T05:04:49.958Z,93
2022-09-23T05:05:57.031Z,93
2022-09-23T05:07:04.188Z,93
2022-09-23T05:08:11.281Z,92
2022-09-23T05:10:24.976Z,93
2022-09-23T05:11:32.098Z,93
2022-09-23T05:12:39.181Z,92
2022-09-23T05:13:46.307Z,92
2022-09-23T05:14:53.325Z,92
2022-09-23T05:17:07.114Z,92
2022-09-23T05:18:16.910Z,92
2022-09-23T05:19:21.304Z,92
2022-09-23T05:20:28.398Z,92
2022-09-23T05:21:35.509Z,92
2022-09-23T05:23:49.188Z,92
2022-09-23T05:24:56.312Z,91
2022-09-23T05:26:03.381Z,91
2022-09-23T05:27:10.476Z,91
2022-09-23T05:28:17.202Z,91
2022-09-23T05:29:24.191Z,91
2022-09-23T05:30:31.305Z,91
2022-09-23T05:31:38.496Z,91
2022-09-23T05:32:44.968Z,91
2022-09-23T05:33:52.092Z,91
2022-09-23T05:34:59.223Z,91
2022-09-23T05:36:06.385Z,91
2022-09-23T05:37:13.412Z,91
2022-09-23T05:38:20.490Z,91
2022-09-23T05:39:27.070Z,91
2022-09-23T05:40:34.280Z,91
2022-09-23T05:41:41.315Z,91
2022-09-23T05:42:48.400Z,91
2022-09-23T05:45:02.137Z,91
2022-09-23T05:46:09.926Z,91
2022-09-23T05:48:23.373Z,91
2022-09-23T05:49:48.607Z,91
2022-09-23T05:50:37.180Z,91
2022-09-23T05:51:44.293Z,91
2022-09-23T05:52:51.309Z,91
2022-09-23T05:53:58.503Z,91
2022-09-23T05:55:05.002Z,91
2022-09-23T05:56:12.142Z,91
2022-09-23T05:57:19.479Z,91
2022-09-23T05:58:26.326Z,91
2022-09-23T05:59:33.386Z,91
2022-09-23T06:00:40.019Z,90
2022-09-23T06:01:47.189Z,90
2022-09-23T06:02:54.592Z,90
2022-09-23T06:05:08.462Z,90
2022-09-23T06:06:15.016Z,90
2022-09-23T06:07:22.161Z,90
2022-09-23T06:08:29.248Z,90
2022-09-23T06:09:36.955Z,90
2022-09-23T06:10:43.447Z,90
2022-09-23T06:14:04.425Z,90
2022-09-23T06:15:11.388Z,90
2022-09-23T06:16:18.534Z,90
2022-09-23T06:17:25.004Z,90
2022-09-23T06:18:32.172Z,90
2022-09-23T06:19:39.342Z,90
2022-09-23T06:20:46.380Z,90
2022-09-23T06:21:54.011Z,90
2022-09-23T06:23:00.039Z,90
2022-09-23T06:24:07.493Z,90
2022-09-23T06:25:14.286Z,90
2022-09-23T06:26:21.309Z,90
2022-09-23T06:27:27.972Z,90
2022-09-23T06:28:35.103Z,90
2022-09-23T06:29:42.198Z,90
2022-09-23T06:30:49.427Z,90
2022-09-23T06:31:56.478Z,90
2022-09-23T06:33:02.915Z,90
2022-09-23T06:34:12.851Z,90
2022-09-23T06:35:26.259Z,90
2022-09-23T06:36:37.043Z,90
2022-09-23T06:37:35.363Z,90
2022-09-23T06:38:38.048Z,90
2022-09-23T06:39:45.019Z,90
2022-09-23T06:40:52.214Z,90
2022-09-23T06:41:59.273Z,90
2022-09-23T06:46:27.807Z,90
2022-09-23T06:47:34.294Z,90
2022-09-23T06:48:45.934Z,90
2022-09-23T06:49:48.543Z,90
2022-09-23T06:50:55.080Z,90
2022-09-23T06:52:02.261Z,90
2022-09-23T06:53:09.283Z,90
2022-09-23T06:54:16.413Z,90
2022-09-23T06:55:22.931Z,90
2022-09-23T06:56:33.483Z,90
2022-09-23T06:57:37.302Z,90
2022-09-23T06:58:44.292Z,90
2022-09-23T06:59:51.431Z,90
2022-09-23T07:00:57.998Z,90
2022-09-23T07:02:05.170Z,90
2022-09-23T07:03:13.295Z,90
2022-09-23T07:04:19.341Z,90
2022-09-23T07:05:26.416Z,90
2022-09-23T07:06:32.985Z,90
2022-09-23T07:07:40.133Z,90
2022-09-23T07:08:47.303Z,90
2022-09-23T07:09:54.325Z,90
2022-09-23T07:11:01.432Z,90
2022-09-23T07:12:07.993Z,90
2022-09-23T07:13:16.368Z,90
2022-09-23T07:14:23.048Z,90
2022-09-23T07:17:43.018Z,90
2022-09-23T07:18:50.149Z,90
2022-09-23T07:19:57.400Z,90
2022-09-23T07:21:04.355Z,90
2022-09-23T07:22:11.434Z,89
2022-09-23T07:23:18.032Z,89
2022-09-23T07:24:25.098Z,90
2022-09-23T07:25:33.335Z,89
2022-09-23T07:27:45.916Z,89
2022-09-23T07:28:52.979Z,89
2022-09-23T07:30:00.186Z,89
2022-09-23T07:31:07.340Z,89
2022-09-23T07:32:14.631Z,89
2022-09-23T07:33:31.020Z,89
2022-09-23T07:34:27.990Z,89
2022-09-23T07:35:35.435Z,89
2022-09-23T07:36:42.253Z,89
2022-09-23T07:37:49.389Z,89
2022-09-23T07:38:55.934Z,89
2022-09-23T07:40:03.025Z,89
2022-09-23T07:41:10.167Z,88
2022-09-23T07:43:24.368Z,88
2022-09-23T07:44:32.030Z,88
2022-09-23T07:45:38.062Z,88
2022-09-23T07:46:48.238Z,88
2022-09-23T07:47:52.339Z,88
2022-09-23T07:48:59.520Z,88
2022-09-23T07:50:06.012Z,88
2022-09-23T07:51:13.062Z,88
2022-09-23T07:52:20.198Z,88
2022-09-23T07:53:27.346Z,88
2022-09-23T07:54:34.393Z,88
2022-09-23T07:55:40.970Z,87
2022-09-23T07:56:48.053Z,87
2022-09-23T07:57:55.176Z,87
2022-09-23T07:59:02.425Z,87
2022-09-23T08:00:09.544Z,87
2022-09-23T08:01:16.053Z,87
2022-09-23T08:02:23.052Z,87
2022-09-23T08:03:30.209Z,87
2022-09-23T08:04:37.323Z,87
2022-09-23T08:05:44.460Z,87
2022-09-23T08:06:51.051Z,87
2022-09-23T08:09:05.202Z,87
2022-09-23T08:11:33.890Z,87
2022-09-23T08:12:26.077Z,87
2022-09-23T08:13:33.111Z,87
2022-09-23T08:14:40.141Z,87
2022-09-23T08:15:49.946Z,87
2022-09-23T08:16:54.406Z,86
2022-09-23T08:18:01.023Z,86
2022-09-23T08:19:08.240Z,86
2022-09-23T08:21:22.312Z,86
2022-09-23T08:22:29.408Z,86
2022-09-23T08:23:36.173Z,85
2022-09-23T08:24:43.096Z,85
2022-09-23T08:25:51.279Z,85
2022-09-23T08:26:57.346Z,85
2022-09-23T08:28:04.388Z,84
2022-09-23T08:29:11.756Z,84
2022-09-23T08:30:18.119Z,84
2022-09-23T08:31:25.216Z,84
2022-09-23T08:32:32.309Z,83
2022-09-23T08:33:38.921Z,83
2022-09-23T08:34:46.355Z,83
2022-09-23T08:35:53.137Z,83
2022-09-23T08:37:00.258Z,83
2022-09-23T08:38:07.309Z,82
2022-09-23T08:39:13.903Z,82
2022-09-23T08:40:21.123Z,82
2022-09-23T08:41:28.148Z,82
2022-09-23T08:42:35.180Z,82
2022-09-23T08:44:49.440Z,81
2022-09-23T08:45:56.113Z,81
2022-09-23T08:47:03.101Z,81
2022-09-23T08:48:12.947Z,81
2022-09-23T08:50:23.928Z,81
2022-09-23T08:51:31.015Z,81
2022-09-23T08:52:38.182Z,81
2022-09-23T08:53:45.226Z,80
2022-09-23T08:54:55.284Z,80
2022-09-23T08:55:58.977Z,80
2022-09-23T08:57:06.074Z,80
2022-09-23T08:58:24.902Z,79
2022-09-23T08:59:20.387Z,79
2022-09-23T09:00:27.344Z,79
2022-09-23T09:01:34.016Z,79
2022-09-23T09:02:41.156Z,78
2022-09-23T09:03:48.222Z,79
2022-09-23T09:04:55.211Z,79
2022-09-23T09:09:23.195Z,79
2022-09-23T09:10:30.352Z,78
2022-09-23T09:11:37.361Z,78
2022-09-23T09:12:43.973Z,78
2022-09-23T09:13:51.067Z,78
2022-09-23T09:14:58.225Z,77
2022-09-23T09:16:55.387Z,77
2022-09-23T09:17:12.331Z,77
2022-09-23T09:18:19.004Z,77
2022-09-23T09:19:26.068Z,77
2022-09-23T09:20:33.181Z,77
2022-09-23T09:21:40.313Z,77
2022-09-23T09:22:47.391Z,77
2022-09-23T09:25:01.028Z,77
2022-09-23T09:26:08.248Z,77
2022-09-23T09:27:15.321Z,77
2022-09-23T09:28:22.353Z,77
2022-09-23T09:29:35.376Z,77
2022-09-23T09:31:43.152Z,76
2022-09-23T09:32:50.347Z,76
2022-09-23T09:35:04.001Z,76
2022-09-23T09:36:11.100Z,75
2022-09-23T09:37:18.239Z,75
2022-09-23T09:38:25.353Z,75
2022-09-23T09:39:31.951Z,75
2022-09-23T09:40:40.118Z,75
2022-09-23T09:41:46.179Z,74
2022-09-23T09:42:53.293Z,74
2022-09-23T09:44:00.516Z,74
2022-09-23T09:45:06.934Z,74
2022-09-23T09:46:14.104Z,74
2022-09-23T09:47:21.158Z,73
2022-09-23T09:48:27.846Z,73
2022-09-23T09:49:40.169Z,73
2022-09-23T09:50:41.946Z,73
2022-09-23T09:51:49.079Z,73
2022-09-23T09:52:56.070Z,73
2022-09-23T09:54:03.252Z,73
2022-09-23T09:55:10.310Z,73
2022-09-23T09:56:16.819Z,73
2022-09-23T09:57:41.881Z,73
2022-09-23T09:58:31.138Z,73
2022-09-23T09:59:38.179Z,73
2022-09-23T10:00:45.236Z,73
2022-09-23T10:01:51.841Z,73
2022-09-23T10:02:59.042Z,74
2022-09-23T10:04:06.177Z,74
2022-09-23T10:05:13.187Z,74
2022-09-23T10:06:20.414Z,74
2022-09-23T10:07:27.197Z,74
2022-09-23T10:08:33.997Z,73
2022-09-23T10:09:41.080Z,73
2022-09-23T10:10:48.247Z,73
2022-09-23T10:13:01.907Z,73
2022-09-23T10:14:09.123Z,73
2022-09-23T10:15:16.085Z,73
2022-09-23T10:16:23.379Z,73
2022-09-23T10:17:30.405Z,73
2022-09-23T10:18:37.049Z,73
2022-09-23T10:19:44.052Z,72
2022-09-23T10:20:51.270Z,72
2022-09-23T10:21:58.311Z,72
2022-09-23T10:23:04.737Z,72
2022-09-23T10:24:12.006Z,71
2022-09-23T10:25:19.082Z,71
2022-09-23T10:26:26.164Z,71
2022-09-23T10:28:40.518Z,71
2022-09-23T10:29:48.092Z,71
2022-09-23T10:30:54.087Z,71
2022-09-23T10:32:01.091Z,71
2022-09-23T10:33:08.347Z,71
2022-09-23T10:34:14.885Z,71
2022-09-23T10:35:22.187Z,71
2022-09-23T10:36:29.072Z,71
2022-09-23T10:37:36.219Z,70
2022-09-23T10:38:43.276Z,70
2022-09-23T10:39:50.391Z,70
2022-09-23T10:40:57.177Z,70
2022-09-23T10:42:04.024Z,70
2022-09-23T10:43:11.225Z,70
2022-09-23T10:44:18.405Z,70
2022-09-23T10:45:24.874Z,70
2022-09-23T10:46:41.809Z,70
2022-09-23T10:47:39.126Z,70
2022-09-23T10:48:46.405Z,70
2022-09-23T10:49:53.192Z,70
2022-09-23T10:50:59.835Z,70
2022-09-23T10:52:07.010Z,70
2022-09-23T10:54:21.938Z,70
2022-09-23T10:55:28.308Z,70
2022-09-23T10:56:34.903Z,70
2022-09-23T10:57:42.041Z,70
2022-09-23T10:58:49.146Z,70
2022-09-23T10:59:56.337Z,70
2022-09-23T11:01:03.335Z,69
2022-09-23T11:02:09.972Z,69
2022-09-23T11:03:17.097Z,69
2022-09-23T11:05:31.314Z,69
2022-09-23T11:06:38.384Z,69
2022-09-23T11:07:44.915Z,69
2022-09-23T11:08:51.945Z,69
2022-09-23T11:09:59.173Z,70
2022-09-23T11:11:06.756Z,70
2022-09-23T11:12:13.245Z,70
2022-09-23T11:13:19.936Z,70
2022-09-23T11:14:26.963Z,70
2022-09-23T11:15:34.154Z,70
2022-09-23T11:16:41.308Z,70
2022-09-23T11:17:48.261Z,70
2022-09-23T11:18:55.005Z,70
2022-09-23T11:20:02.095Z,70
2022-09-23T11:21:09.203Z,70
2022-09-23T11:22:16.413Z,70
2022-09-23T11:23:22.858Z,70
2022-09-23T11:24:30.043Z,70
2022-09-23T11:25:37.099Z,70
2022-09-23T11:26:44.221Z,70
2022-09-23T11:27:51.273Z,70
2022-09-23T11:28:58.566Z,70
2022-09-23T11:30:04.961Z,69
2022-09-23T11:33:26.209Z,70
2022-09-23T11:34:33.157Z,70
2022-09-23T11:35:40.112Z,70
2022-09-23T11:36:48.093Z,69
2022-09-23T11:37:54.064Z,69
2022-09-23T11:39:01.232Z,69
2022-09-23T11:41:15.104Z,69
2022-09-23T11:42:22.193Z,69
2022-09-23T11:43:29.108Z,68
2022-09-23T11:44:36.359Z,68
2022-09-23T11:45:42.834Z,68
2022-09-23T11:46:50.080Z,68
2022-09-23T11:47:57.282Z,68
2022-09-23T11:49:04.083Z,68
2022-09-23T11:50:11.403Z,68
2022-09-23T11:51:18.024Z,68
2022-09-23T11:52:26.146Z,68
2022-09-23T11:53:32.027Z,68
2022-09-23T11:54:39.129Z,68
2022-09-23T11:55:56.400Z,68
2022-09-23T11:56:52.962Z,68
2022-09-23T11:58:00.153Z,68
2022-09-23T11:59:07.532Z,68
2022-09-23T12:00:14.238Z,68
2022-09-23T12:01:31.771Z,68
2022-09-23T12:02:30.887Z,68
2022-09-23T12:03:42.157Z,68
2022-09-23T12:04:52.871Z,69
2022-09-23T12:05:49.498Z,69
2022-09-23T12:06:56.429Z,69
2022-09-23T12:08:03.044Z,69
2022-09-23T12:09:10.139Z,69
2022-09-23T12:10:17.176Z,69
2022-09-23T12:11:24.404Z,69
2022-09-23T12:12:31.371Z,69
2022-09-23T12:13:37.849Z,70
2022-09-23T12:14:45.121Z,69
2022-09-23T12:15:52.252Z,70
2022-09-23T12:16:59.344Z,70
2022-09-23T12:18:05.966Z,69
2022-09-23T12:19:12.963Z,69
2022-09-23T12:20:20.146Z,69
2022-09-23T12:21:39.079Z,69
2022-09-23T12:22:34.450Z,69
2022-09-23T12:23:41.264Z,69
2022-09-23T12:24:47.876Z,68
2022-09-23T12:25:55.134Z,69
2022-09-23T12:27:02.229Z,69
2022-09-23T12:29:15.928Z,68
2022-09-23T12:30:23.043Z,68
2022-09-23T12:31:30.194Z,68
2022-09-23T12:32:37.251Z,68
2022-09-23T12:33:44.684Z,68
2022-09-23T12:35:57.889Z,68
2022-09-23T12:37:05.139Z,68
2022-09-23T12:38:13.570Z,68
2022-09-23T12:39:19.182Z,67
2022-09-23T12:40:25.832Z,67
2022-09-23T12:41:32.845Z,67
2022-09-23T12:42:40.601Z,67
2022-09-23T12:43:47.274Z,67
2022-09-23T12:44:54.158Z,67
2022-09-23T12:46:00.952Z,67
2022-09-23T12:47:07.886Z,68
2022-09-23T12:48:14.970Z,68
2022-09-23T12:49:22.133Z,68
2022-09-23T12:50:29.388Z,68
2022-09-23T12:51:35.894Z,68
2022-09-23T12:52:42.987Z,68
2022-09-23T12:53:50.018Z,69
2022-09-23T12:54:57.888Z,69
2022-09-23T12:56:04.327Z,69
2022-09-23T12:57:10.925Z,70
2022-09-23T12:58:17.914Z,70
2022-09-23T12:59:25.043Z,70
2022-09-23T13:00:34.382Z,70
2022-09-23T13:01:39.520Z,71
2022-09-23T13:02:47.047Z,71
2022-09-23T13:03:52.877Z,71
2022-09-23T13:05:00.191Z,71
2022-09-23T13:06:07.148Z,71
2022-09-23T13:07:14.354Z,71
2022-09-23T13:09:27.921Z,71
2022-09-23T13:10:35.115Z,71
2022-09-23T13:11:42.292Z,71
2022-09-23T13:12:49.414Z,71
2022-09-23T13:13:55.974Z,71
2022-09-23T13:15:03.606Z,71
2022-09-23T13:16:10.071Z,71
2022-09-23T13:17:17.248Z,71
2022-09-23T13:18:23.868Z,71
2022-09-23T13:19:34.177Z,71
2022-09-23T13:20:38.185Z,70
2022-09-23T13:21:45.189Z,70
2022-09-23T13:22:52.403Z,70
2022-09-23T13:23:58.858Z,70
2022-09-23T13:25:05.995Z,70
2022-09-23T13:26:12.915Z,70
2022-09-23T13:27:20.178Z,71
2022-09-23T13:28:27.254Z,71
2022-09-23T13:29:33.711Z,71
2022-09-23T13:30:40.857Z,71
2022-09-23T13:31:48.136Z,71
2022-09-23T13:32:55.069Z,71
2022-09-23T13:34:02.469Z,71
2022-09-23T13:35:09.387Z,71
2022-09-23T13:36:15.821Z,71
2022-09-23T13:37:23.148Z,71
2022-09-23T13:39:37.172Z,70
2022-09-23T13:40:44.002Z,70
2022-09-23T13:41:51.021Z,70
2022-09-23T13:42:58.157Z,70
2022-09-23T13:44:05.242Z,70
2022-09-23T13:45:12.293Z,70
2022-09-23T13:46:18.989Z,70
2022-09-23T13:47:25.859Z,70
2022-09-23T13:48:32.949Z,70
2022-09-23T13:49:40.245Z,70
2022-09-23T13:50:47.318Z,70
2022-09-23T13:51:53.761Z,70
2022-09-23T13:53:00.834Z,69
2022-09-23T13:54:08.319Z,69
2022-09-23T13:55:16.235Z,69
2022-09-23T13:57:29.593Z,69
2022-09-23T13:59:43.272Z,69
2022-09-23T14:00:50.211Z,69
2022-09-23T14:01:57.233Z,68
2022-09-23T14:03:04.878Z,68
2022-09-23T14:04:11.253Z,68
2022-09-23T14:05:18.332Z,68
2022-09-23T14:06:25.439Z,68
2022-09-23T14:07:32.449Z,68
2022-09-23T14:08:39.290Z,68
2022-09-23T14:09:46.220Z,68
2022-09-23T14:10:52.986Z,68
2022-09-23T14:12:00.412Z,68
2022-09-23T14:13:06.971Z,68
2022-09-23T14:14:14.317Z,69
2022-09-23T14:15:21.384Z,69
2022-09-23T14:16:28.508Z,69
2022-09-23T14:17:35.402Z,68
2022-09-23T14:18:42.050Z,68
2022-09-23T14:19:49.405Z,68
2022-09-23T14:20:56.203Z,68
2022-09-23T14:22:03.349Z,68
2022-09-23T14:23:10.384Z,68
2022-09-23T14:24:17.534Z,68
2022-09-23T14:25:24.311Z,68
2022-09-23T14:27:38.319Z,68
2022-09-23T14:28:45.100Z,68
2022-09-23T14:29:52.085Z,68
2022-09-23T14:30:59.262Z,68
2022-09-23T14:32:06.188Z,68
2022-09-23T14:33:13.403Z,69
2022-09-23T14:34:20.469Z,69
2022-09-23T14:35:27.091Z,68
2022-09-23T14:38:48.444Z,69
2022-09-23T14:39:57.714Z,69
2022-09-23T14:41:01.750Z,69
2022-09-23T14:43:16.300Z,68
2022-09-23T14:44:24.358Z,68
2022-09-23T14:45:30.475Z,68
2022-09-23T14:46:37.005Z,68
2022-09-23T14:47:43.817Z,68
2022-09-23T14:48:51.455Z,68
2022-09-23T14:49:58.083Z,69
2022-09-23T14:51:05.134Z,69
2022-09-23T14:52:12.134Z,69
2022-09-23T14:53:19.186Z,68
2022-09-23T14:54:26.055Z,68
2022-09-23T14:55:33.309Z,69
2022-09-23T14:56:40.479Z,69
2022-09-23T14:57:47.057Z,69
2022-09-23T14:58:54.192Z,69
2022-09-23T15:00:01.415Z,69
2022-09-23T15:01:08.533Z,70
2022-09-23T15:02:15.505Z,70
2022-09-23T15:03:22.070Z,70
2022-09-23T15:04:28.871Z,71
2022-09-23T15:05:38.051Z,71
2022-09-23T15:06:43.055Z,71
2022-09-23T15:07:50.579Z,71
2022-09-23T15:08:57.537Z,71
2022-09-23T15:10:03.845Z,71
2022-09-23T15:11:11.586Z,72
2022-09-23T15:12:18.420Z,72
2022-09-23T15:13:25.717Z,72
2022-09-23T15:14:37.755Z,72
2022-09-23T15:15:39.207Z,73
2022-09-23T15:16:48.914Z,73
2022-09-23T15:17:53.863Z,73
2022-09-23T15:20:07.100Z,73
2022-09-23T15:21:14.100Z,73
2022-09-23T15:22:20.969Z,73
2022-09-23T15:23:28.471Z,73
2022-09-23T15:24:35.182Z,74
2022-09-23T15:25:42.158Z,74
2022-09-23T15:26:49.168Z,74
2022-09-23T15:27:57.286Z,74
2022-09-23T15:29:03.613Z,75
2022-09-23T15:30:14.602Z,75
2022-09-23T15:31:17.152Z,75
2022-09-23T15:32:24.289Z,75
2022-09-23T15:33:30.995Z,75
2022-09-23T15:34:38.149Z,76
2022-09-23T15:35:45.508Z,76
2022-09-23T15:36:51.825Z,76
2022-09-23T15:37:59.644Z,76
2022-09-23T15:39:06.350Z,77
2022-09-23T15:40:13.459Z,77
2022-09-23T15:41:19.726Z,77
2022-09-23T15:42:26.826Z,77
2022-09-23T15:43:34.188Z,77
2022-09-23T15:44:41.165Z,77
2022-09-23T15:46:54.943Z,77
2022-09-23T15:48:02.030Z,77
2022-09-23T15:49:09.461Z,77
2022-09-23T15:50:16.273Z,77
2022-09-23T15:51:23.378Z,77
2022-09-23T15:52:31.029Z,77
2022-09-23T15:53:37.045Z,77
2022-09-23T15:54:44.299Z,77
2022-09-23T15:55:51.076Z,77
2022-09-23T15:58:05.562Z,77
2022-09-23T15:59:12.156Z,77
2022-09-23T16:01:26.325Z,77
2022-09-23T16:02:33.507Z,77
2022-09-23T16:03:40.049Z,77
2022-09-23T16:05:53.921Z,77
2022-09-23T16:07:01.289Z,77
2022-09-23T16:08:09.447Z,77
2022-09-23T16:09:14.886Z,77
2022-09-23T16:10:22.266Z,77
2022-09-23T16:11:29.239Z,77
2022-09-23T16:12:36.319Z,77
2022-09-23T16:13:43.508Z,77
2022-09-23T16:14:50.118Z,77
2022-09-23T16:15:56.907Z,77
2022-09-23T16:17:03.948Z,77
2022-09-23T16:18:11.089Z,77
2022-09-23T16:19:18.499Z,77
2022-09-23T16:20:24.796Z,77
2022-09-23T16:21:31.946Z,77
2022-09-23T16:22:38.981Z,77
2022-09-23T16:23:46.368Z,77
2022-09-23T16:25:59.812Z,77
2022-09-23T16:27:07.129Z,77
2022-09-23T16:28:14.214Z,77
2022-09-23T16:29:21.297Z,77
2022-09-23T16:30:28.357Z,77
2022-09-23T16:31:35.167Z,77
2022-09-23T16:32:41.890Z,77
2022-09-23T16:33:49.707Z,77
2022-09-23T16:34:56.104Z,77
2022-09-23T16:36:02.887Z,77
2022-09-23T16:37:10.586Z,77
2022-09-23T16:38:17.058Z,77
2022-09-23T16:39:24.182Z,77
2022-09-23T16:40:31.376Z,77
2022-09-23T16:42:45.013Z,77
2022-09-23T16:43:51.898Z,77
2022-09-23T16:44:59.042Z,77
2022-09-23T16:46:06.401Z,77
2022-09-23T16:47:13.447Z,77
2022-09-23T16:48:20.078Z,77
2022-09-23T16:50:33.996Z,77
2022-09-23T16:51:41.159Z,77
2022-09-23T16:53:54.984Z,77
2022-09-23T16:55:02.277Z,77
2022-09-23T16:56:09.271Z,77
2022-09-23T16:57:16.362Z,77
2022-09-23T16:58:22.915Z,77
2022-09-23T16:59:30.060Z,77
2022-09-23T17:00:37.200Z,76
2022-09-23T17:01:44.404Z,76
2022-09-23T17:02:51.412Z,76
2022-09-23T17:03:57.935Z,76
2022-09-23T17:05:04.811Z,76
2022-09-23T17:06:12.001Z,76
2022-09-23T17:07:19.277Z,77
2022-09-23T17:08:26.342Z,77
2022-09-23T17:09:32.967Z,77
2022-09-23T17:10:39.855Z,77
2022-09-23T17:11:47.146Z,77
2022-09-23T17:12:54.166Z,77
2022-09-23T17:14:01.384Z,77
2022-09-23T17:15:07.732Z,78